Time;durP1;ratioP1;P1;durP2;ratioP2;P2;SDS_P1;SDS_P2;PMS_P1;PMS_P2;Temp;Humidity;BMP_temperature;BMP_pressure;BME280_temperature;BME280_humidity;BME280_pressure;Samples;Min_cycle;Max_cycle;Signal;HPM_P1;HPM_P2
2021/04/24 00:00:57;;;;;;;4.60;4.22;;;17.50;49.20;;;;;;5075920;28;20249;-68
2021/04/24 00:03:24;;;;;;;4.47;4.18;;;17.50;49.30;;;;;;5093180;28;20204;-69
2021/04/24 00:05:50;;;;;;;3.97;3.67;;;17.60;49.30;;;;;;5093723;28;20171;-68
2021/04/24 00:08:16;;;;;;;4.40;4.00;;;17.50;49.30;;;;;;5093920;28;20253;-68
2021/04/24 00:10:43;;;;;;;4.35;3.95;;;17.50;49.30;;;;;;5057637;28;20219;-67
2021/04/24 00:13:09;;;;;;;4.13;3.83;;;17.50;49.30;;;;;;5075806;28;20169;-68
2021/04/24 00:15:35;;;;;;;4.93;4.53;;;17.50;49.20;;;;;;5057969;28;20218;-68
2021/04/24 00:18:01;;;;;;;5.00;4.50;;;17.50;49.30;;;;;;5075871;28;20215;-68
2021/04/24 00:20:26;;;;;;;4.13;3.83;;;17.50;49.30;;;;;;5075717;28;20166;-69
2021/04/24 00:22:52;;;;;;;4.28;3.88;;;17.50;49.30;;;;;;5092564;28;20220;-68
2021/04/24 00:25:18;;;;;;;4.07;3.78;;;17.50;49.30;;;;;;5093464;28;20664;-67
2021/04/24 00:27:43;;;;;;;4.53;4.13;;;17.50;49.30;;;;;;5074935;28;20221;-67
2021/04/24 00:30:10;;;;;;;4.07;3.70;;;17.50;49.30;;;;;;5074741;28;20538;-67
2021/04/24 00:32:36;;;;;;;4.82;4.32;;;17.50;49.30;;;;;;5075396;28;20239;-67
2021/04/24 00:35:02;;;;;;;4.70;4.30;;;17.50;49.30;;;;;;5075491;28;20567;-67
2021/04/24 00:37:27;;;;;;;4.38;4.07;;;17.40;49.30;;;;;;5074523;28;20645;-68
2021/04/24 00:39:53;;;;;;;4.15;3.75;;;17.40;49.20;;;;;;5093301;28;20198;-67
2021/04/24 00:42:18;;;;;;;4.20;3.90;;;17.40;49.30;;;;;;5093172;28;20210;-68
2021/04/24 00:44:48;;;;;;;4.05;3.72;;;17.40;49.30;;;;;;5092267;28;20172;-68
2021/04/24 00:47:14;;;;;;;4.10;3.80;;;17.40;49.30;;;;;;5093166;28;20173;-69
2021/04/24 00:49:39;;;;;;;4.10;3.80;;;17.40;49.30;;;;;;5075030;28;20178;-68
2021/04/24 00:52:05;;;;;;;4.00;3.70;;;17.40;49.30;;;;;;5092496;28;20656;-67
2021/04/24 00:54:31;;;;;;;3.97;3.67;;;17.40;49.30;;;;;;5074924;28;20570;-68
2021/04/24 00:56:56;;;;;;;4.40;4.00;;;17.40;49.30;;;;;;5058384;28;20199;-68
2021/04/24 00:59:22;;;;;;;4.00;3.55;;;17.40;49.30;;;;;;5092552;28;20641;-68
2021/04/24 01:01:48;;;;;;;4.18;3.88;;;17.40;49.30;;;;;;5092714;28;20262;-69
2021/04/24 01:04:13;;;;;;;4.05;3.75;;;17.40;49.40;;;;;;5074857;28;20641;-68
2021/04/24 01:06:39;;;;;;;4.38;4.05;;;17.30;49.30;;;;;;5074008;28;20508;-68
2021/04/24 01:09:05;;;;;;;4.22;3.92;;;17.30;49.30;;;;;;5092987;28;20189;-67
2021/04/24 01:11:31;;;;;;;5.05;3.88;;;17.30;49.30;;;;;;5092536;28;20174;-68
2021/04/24 01:13:56;;;;;;;4.43;4.13;;;17.30;49.30;;;;;;5074210;28;20261;-68
2021/04/24 01:16:22;;;;;;;4.30;3.90;;;17.30;49.30;;;;;;5041421;28;20173;-68
2021/04/24 01:18:47;;;;;;;4.18;3.63;;;17.30;49.30;;;;;;5074058;28;20728;-68
2021/04/24 01:21:13;;;;;;;4.32;4.00;;;17.30;49.30;;;;;;5075726;28;20169;-69
2021/04/24 01:23:39;;;;;;;4.32;4.00;;;17.30;49.30;;;;;;5061875;28;20677;-68
2021/04/24 01:26:04;;;;;;;4.30;3.90;;;17.30;49.40;;;;;;5096250;28;20174;-67
2021/04/24 01:28:30;;;;;;;4.50;3.97;;;17.30;49.30;;;;;;5061646;28;20231;-67
2021/04/24 01:30:56;;;;;;;4.38;4.07;;;17.30;49.40;;;;;;5062234;28;20253;-67
2021/04/24 01:33:23;;;;;;;4.20;3.80;;;17.30;49.40;;;;;;5061431;28;20270;-67
2021/04/24 01:35:48;;;;;;;3.95;3.55;;;17.30;49.40;;;;;;5061687;28;20170;-68
2021/04/24 01:38:15;;;;;;;3.92;3.63;;;17.20;49.30;;;;;;5078721;28;20194;-68
2021/04/24 01:40:41;;;;;;;4.28;3.95;;;17.30;49.40;;;;;;5077874;28;20248;-68
2021/04/24 01:43:06;;;;;;;3.90;3.50;;;17.20;49.30;;;;;;5061910;28;20284;-68
2021/04/24 01:45:32;;;;;;;4.25;3.85;;;17.20;49.30;;;;;;5078042;28;20219;-69
2021/04/24 01:47:58;;;;;;;4.18;3.88;;;17.20;49.30;;;;;;5095896;28;20616;-69
2021/04/24 01:50:29;;;;;;;3.97;3.67;;;17.20;49.30;;;;;;5078559;28;20176;-68
2021/04/24 01:52:55;;;;;;;3.70;3.40;;;17.20;49.40;;;;;;5078364;28;20227;-67
2021/04/24 01:55:24;;;;;;;4.10;3.80;;;17.20;49.30;;;;;;5077724;28;20246;-68
2021/04/24 01:57:50;;;;;;;4.20;3.80;;;17.20;49.30;;;;;;5096145;28;20200;-68
2021/04/24 02:00:23;;;;;;;4.40;4.00;;;17.20;49.40;;;;;;5096440;28;20177;-69
2021/04/24 02:02:50;;;;;;;4.22;3.85;;;17.20;49.30;;;;;;5095432;28;20209;-69
2021/04/24 02:05:16;;;;;;;4.15;3.85;;;17.20;49.40;;;;;;5078215;28;20165;-68
2021/04/24 02:07:41;;;;;;;3.78;3.47;;;17.20;49.40;;;;;;5096075;28;20177;-68
2021/04/24 02:10:11;;;;;;;4.30;3.88;;;17.20;49.40;;;;;;5077456;28;20545;-67
2021/04/24 02:12:37;;;;;;;3.88;3.60;;;17.20;49.40;;;;;;5077686;28;20598;-68
2021/04/24 02:15:04;;;;;;;3.97;3.67;;;17.20;49.40;;;;;;5077238;28;20165;-68
2021/04/24 02:17:29;;;;;;;4.40;4.00;;;17.10;49.40;;;;;;5095695;28;20184;-68
2021/04/24 02:19:55;;;;;;;3.88;3.58;;;17.10;49.40;;;;;;5096056;28;20529;-68
2021/04/24 02:22:21;;;;;;;4.55;4.15;;;17.10;49.40;;;;;;5060581;28;20263;-68
2021/04/24 02:24:52;;;;;;;3.85;3.55;;;17.10;49.40;;;;;;5077483;28;20173;-68
2021/04/24 02:27:17;;;;;;;4.25;3.95;;;17.10;49.40;;;;;;5095660;28;20217;-68
2021/04/24 02:29:43;;;;;;;4.15;3.78;;;17.10;49.40;;;;;;5094829;28;20177;-67
2021/04/24 02:32:10;;;;;;;4.03;3.72;;;17.10;49.40;;;;;;5077904;28;20242;-68
2021/04/24 02:34:40;;;;;;;4.05;3.75;;;17.10;49.40;;;;;;5060246;28;20162;-68
2021/04/24 02:37:06;;;;;;;4.68;4.07;;;17.10;49.40;;;;;;5077304;28;20201;-68
2021/04/24 02:39:37;;;;;;;3.95;3.65;;;17.10;49.40;;;;;;5077436;28;20188;-69
2021/04/24 02:42:04;;;;;;;4.55;4.15;;;17.10;49.40;;;;;;5077416;28;20161;-68
2021/04/24 02:44:30;;;;;;;3.90;3.60;;;17.10;49.40;;;;;;5076722;28;20177;-69
2021/04/24 02:46:57;;;;;;;3.90;3.60;;;17.10;49.50;;;;;;5077436;28;20166;-68
2021/04/24 02:49:22;;;;;;;3.75;3.45;;;17.10;49.50;;;;;;5077473;28;20166;-68
2021/04/24 02:51:48;;;;;;;3.97;3.67;;;17.10;49.50;;;;;;5076408;28;20227;-68
2021/04/24 02:54:13;;;;;;;4.63;4.22;;;17.00;49.40;;;;;;5095370;28;20178;-68
2021/04/24 02:56:39;;;;;;;3.53;3.22;;;17.10;49.40;;;;;;5077038;28;20315;-68
2021/04/24 02:59:05;;;;;;;4.35;4.00;;;17.00;49.40;;;;;;5076681;28;20642;-70
2021/04/24 03:01:30;;;;;;;3.40;3.10;;;17.00;49.40;;;;;;5077360;28;20166;-69
2021/04/24 03:03:56;;;;;;;3.97;3.67;;;17.00;49.40;;;;;;5077036;28;20206;-69
2021/04/24 03:06:22;;;;;;;4.20;3.80;;;17.00;49.40;;;;;;5076449;28;20210;-68
2021/04/24 03:08:47;;;;;;;4.05;3.72;;;17.00;49.40;;;;;;5076878;28;20170;-69
2021/04/24 03:11:13;;;;;;;4.15;3.85;;;17.00;49.40;;;;;;5094985;28;20188;-69
2021/04/24 03:13:38;;;;;;;3.88;3.58;;;17.00;49.50;;;;;;5059311;28;20181;-68
2021/04/24 03:16:04;;;;;;;4.30;3.97;;;17.00;49.50;;;;;;5059980;28;20169;-68
2021/04/24 03:18:29;;;;;;;4.07;3.78;;;17.00;49.50;;;;;;5059056;28;20548;-68
2021/04/24 03:20:55;;;;;;;5.07;4.40;;;17.00;49.50;;;;;;5060266;28;20177;-69
2021/04/24 03:23:21;;;;;;;5.65;4.28;;;16.90;49.40;;;;;;5076880;28;20585;-68
2021/04/24 03:25:46;;;;;;;4.00;3.70;;;16.90;49.40;;;;;;5093764;28;20201;-68
2021/04/24 03:28:12;;;;;;;4.20;3.50;;;16.90;49.50;;;;;;5076343;28;20245;-67
2021/04/24 03:30:37;;;;;;;4.28;3.88;;;16.90;49.40;;;;;;5094311;28;20174;-68
2021/04/24 03:33:03;;;;;;;4.03;3.70;;;16.90;49.50;;;;;;5076132;28;20201;-68
2021/04/24 03:35:29;;;;;;;4.20;3.80;;;16.90;49.50;;;;;;5094250;28;20166;-68
2021/04/24 03:37:54;;;;;;;4.10;3.80;;;16.90;49.50;;;;;;5094491;28;20502;-68
2021/04/24 03:40:20;;;;;;;4.22;3.85;;;16.90;49.50;;;;;;5093911;28;20629;-68
2021/04/24 03:42:45;;;;;;;4.30;3.90;;;16.90;49.50;;;;;;5094018;28;20213;-69
2021/04/24 03:45:18;;;;;;;3.60;3.40;;;16.90;49.50;;;;;;5075107;28;20701;-69
2021/04/24 03:47:48;;;;;;;4.35;3.70;;;16.90;49.50;;;;;;5059686;28;20202;-69
2021/04/24 03:50:14;;;;;;;3.95;3.65;;;16.90;49.50;;;;;;5059409;28;20178;-68
2021/04/24 03:52:40;;;;;;;4.07;3.78;;;16.90;49.50;;;;;;5075844;28;20166;-67
2021/04/24 03:55:06;;;;;;;4.57;4.18;;;16.90;49.50;;;;;;5075519;28;20168;-68
2021/04/24 03:57:31;;;;;;;3.80;3.50;;;16.90;49.50;;;;;;5075767;28;20235;-69
2021/04/24 03:59:58;;;;;;;4.13;3.83;;;16.90;49.50;;;;;;5075926;28;20219;-68
2021/04/24 04:02:24;;;;;;;4.20;3.90;;;16.80;49.50;;;;;;5075332;28;20676;-69
2021/04/24 04:04:49;;;;;;;3.90;3.60;;;16.80;49.50;;;;;;5093563;28;20185;-67
2021/04/24 04:07:15;;;;;;;4.00;3.70;;;16.80;49.50;;;;;;5059276;28;20174;-68
2021/04/24 04:09:40;;;;;;;4.13;3.83;;;16.80;49.50;;;;;;5093019;28;20174;-67
2021/04/24 04:12:06;;;;;;;3.70;3.40;;;16.80;49.50;;;;;;5093764;28;20580;-68
2021/04/24 04:14:32;;;;;;;4.32;3.92;;;16.80;49.60;;;;;;5093364;28;20170;-68
2021/04/24 04:16:57;;;;;;;3.38;3.17;;;16.80;49.60;;;;;;5093075;28;20182;-68
2021/04/24 04:19:23;;;;;;;4.03;3.72;;;16.80;49.50;;;;;;5093696;28;20180;-68
2021/04/24 04:21:48;;;;;;;3.58;3.28;;;16.80;50.10;;;;;;5092766;28;20186;-68
2021/04/24 04:24:14;;;;;;;3.95;3.65;;;16.80;49.50;;;;;;5059069;28;20207;-68
2021/04/24 04:26:40;;;;;;;4.15;3.75;;;16.70;49.50;;;;;;5093248;28;20223;-67
2021/04/24 04:29:05;;;;;;;4.00;3.70;;;16.80;49.60;;;;;;5074723;28;20705;-67
2021/04/24 04:31:31;;;;;;;4.72;3.58;;;16.80;49.60;;;;;;5058458;28;20517;-68
2021/04/24 04:33:56;;;;;;;3.92;3.60;;;16.70;49.60;;;;;;5093542;28;20170;-67
2021/04/24 04:36:22;;;;;;;4.18;3.83;;;16.80;49.60;;;;;;5092892;28;20174;-66
2021/04/24 04:38:47;;;;;;;3.97;3.53;;;16.80;49.60;;;;;;5075127;28;20225;-69
2021/04/24 04:41:13;;;;;;;4.57;3.75;;;16.70;49.60;;;;;;5093474;28;20174;-68
2021/04/24 04:43:38;;;;;;;4.00;3.70;;;16.70;49.60;;;;;;5057766;28;20209;-69
2021/04/24 04:46:05;;;;;;;4.50;4.10;;;16.70;49.60;;;;;;5093117;28;20166;-68
2021/04/24 04:48:30;;;;;;;3.80;3.53;;;16.70;49.60;;;;;;5041602;28;20550;-68
2021/04/24 04:50:56;;;;;;;4.10;3.80;;;16.70;49.60;;;;;;5092880;28;20162;-68
2021/04/24 04:53:22;;;;;;;3.97;3.65;;;16.70;49.60;;;;;;5075117;28;20177;-67
2021/04/24 04:55:48;;;;;;;3.88;3.50;;;16.70;49.60;;;;;;5074479;28;20174;-68
2021/04/24 04:58:13;;;;;;;3.78;3.47;;;16.70;49.70;;;;;;5092490;28;20166;-68
2021/04/24 05:00:39;;;;;;;4.35;3.95;;;16.70;49.70;;;;;;5074767;28;20594;-68
2021/04/24 05:03:05;;;;;;;3.58;3.28;;;16.70;49.60;;;;;;5093041;28;20208;-68
2021/04/24 05:05:30;;;;;;;3.90;3.60;;;16.80;49.50;;;;;;5057241;28;20178;-68
2021/04/24 05:07:56;;;;;;;4.00;3.70;;;16.80;49.60;;;;;;5093224;28;20174;-69
2021/04/24 05:10:23;;;;;;;4.03;3.72;;;16.90;49.60;;;;;;5075015;28;20170;-68
2021/04/24 05:12:49;;;;;;;3.70;3.40;;;17.00;49.60;;;;;;5074286;28;20170;-68
2021/04/24 05:15:15;;;;;;;3.10;2.90;;;17.20;49.40;;;;;;5074882;28;20170;-67
2021/04/24 05:17:40;;;;;;;2.90;2.70;;;17.40;49.10;;;;;;5074580;28;20181;-68
2021/04/24 05:20:07;;;;;;;4.05;3.35;;;17.60;48.80;;;;;;5074257;28;20249;-68
2021/04/24 05:22:32;;;;;;;3.25;3.00;;;17.90;48.50;;;;;;5074418;28;20250;-68
2021/04/24 05:24:59;;;;;;;3.22;2.92;;;18.10;48.40;;;;;;5074258;28;20166;-68
2021/04/24 05:27:24;;;;;;;2.90;2.70;;;18.20;48.10;;;;;;5074620;28;20224;-68
2021/04/24 05:29:50;;;;;;;2.88;2.63;;;18.30;47.90;;;;;;5092393;28;20619;-67
2021/04/24 05:32:15;;;;;;;3.10;2.90;;;18.50;47.50;;;;;;5092620;28;20239;-68
2021/04/24 05:34:41;;;;;;;2.53;2.33;;;18.60;47.30;;;;;;5092326;28;20162;-67
2021/04/24 05:37:07;;;;;;;2.92;2.72;;;18.70;47.20;;;;;;5092940;28;20212;-67
2021/04/24 05:39:32;;;;;;;2.95;2.72;;;18.70;47.10;;;;;;5091848;28;20178;-68
2021/04/24 05:41:58;;;;;;;2.63;2.42;;;18.80;47.00;;;;;;5092524;28;20170;-68
2021/04/24 05:44:23;;;;;;;2.90;2.70;;;18.90;47.00;;;;;;5074637;28;20217;-69
2021/04/24 05:46:49;;;;;;;2.60;2.40;;;18.90;46.90;;;;;;5091742;28;20184;-69
2021/04/24 05:49:14;;;;;;;2.75;2.55;;;18.90;46.90;;;;;;5074662;28;20613;-68
2021/04/24 05:51:40;;;;;;;2.60;2.42;;;18.90;46.90;;;;;;5092341;28;20269;-67
2021/04/24 05:54:06;;;;;;;2.80;2.60;;;18.90;47.00;;;;;;5074040;28;20224;-67
2021/04/24 05:56:31;;;;;;;2.42;2.28;;;18.80;47.10;;;;;;5074357;28;20166;-68
2021/04/24 05:58:57;;;;;;;2.80;2.60;;;18.80;47.30;;;;;;5057863;28;20181;-67
2021/04/24 06:01:22;;;;;;;2.95;2.72;;;18.70;47.40;;;;;;5057166;28;20177;-69
2021/04/24 06:03:48;;;;;;;2.85;2.65;;;18.60;47.50;;;;;;5092009;28;20291;-69
2021/04/24 06:06:14;;;;;;;2.28;2.17;;;18.50;47.80;;;;;;5057663;28;20185;-68
2021/04/24 06:08:39;;;;;;;2.63;2.42;;;18.50;47.90;;;;;;5092923;28;20185;-68
2021/04/24 06:11:05;;;;;;;2.80;2.60;;;18.30;48.00;;;;;;5078142;28;20213;-69
2021/04/24 06:13:31;;;;;;;2.22;2.10;;;18.30;48.10;;;;;;5077849;28;20178;-69
2021/04/24 06:15:57;;;;;;;2.58;2.38;;;18.20;48.10;;;;;;5043988;28;20166;-69
2021/04/24 06:18:23;;;;;;;2.13;2.03;;;18.20;48.30;;;;;;5095981;28;20204;-67
2021/04/24 06:20:49;;;;;;;3.05;2.80;;;18.10;48.40;;;;;;5077617;28;20223;-67
2021/04/24 06:23:14;;;;;;;2.50;2.30;;;18.00;48.50;;;;;;5077021;28;20221;-67
2021/04/24 06:25:40;;;;;;;2.13;2.03;;;18.00;48.70;;;;;;5095729;28;20173;-68
2021/04/24 06:28:06;;;;;;;2.53;2.30;;;18.00;48.70;;;;;;5095484;28;20685;-67
2021/04/24 06:30:31;;;;;;;2.83;2.50;;;17.90;48.80;;;;;;5076865;28;20161;-67
2021/04/24 06:32:57;;;;;;;2.67;2.47;;;17.90;49.00;;;;;;5077643;28;20185;-67
2021/04/24 06:35:23;;;;;;;2.42;2.25;;;17.90;49.00;;;;;;5095025;28;20225;-67
2021/04/24 06:37:49;;;;;;;2.10;2.00;;;17.80;49.00;;;;;;5077252;28;20508;-67
2021/04/24 06:40:15;;;;;;;2.72;2.28;;;17.80;49.10;;;;;;5077660;28;20172;-67
2021/04/24 06:42:41;;;;;;;2.20;2.10;;;17.90;49.20;;;;;;5059928;28;20225;-69
2021/04/24 06:45:08;;;;;;;2.28;2.03;;;17.90;49.10;;;;;;5077355;28;20676;-70
2021/04/24 06:47:34;;;;;;;2.55;2.35;;;18.00;49.00;;;;;;5060619;28;20215;-68
2021/04/24 06:50:00;;;;;;;2.25;2.05;;;18.00;49.00;;;;;;5094676;28;20551;-68
2021/04/24 06:52:25;;;;;;;2.67;2.47;;;18.00;49.00;;;;;;5095215;28;20177;-67
2021/04/24 06:54:51;;;;;;;2.42;2.22;;;18.00;49.00;;;;;;5095352;28;20169;-64
2021/04/24 06:57:17;;;;;;;2.90;2.25;;;17.90;49.00;;;;;;5076593;28;20181;-66
2021/04/24 06:59:43;;;;;;;2.63;2.42;;;18.00;49.00;;;;;;5076589;28;20268;-66
2021/04/24 07:02:11;;;;;;;2.42;2.22;;;18.10;49.10;;;;;;5095050;28;20174;-75
2021/04/24 07:04:37;;;;;;;3.28;2.35;;;18.00;49.30;;;;;;5059460;28;20198;-69
2021/04/24 07:07:02;;;;;;;2.40;2.20;;;18.10;49.30;;;;;;5060450;28;20180;-68
2021/04/24 07:09:28;;;;;;;2.45;2.25;;;18.10;49.40;;;;;;5094809;28;20182;-68
2021/04/24 07:11:53;;;;;;;2.42;2.20;;;18.20;49.50;;;;;;5059761;28;20177;-71
2021/04/24 07:14:19;;;;;;;4.53;2.80;;;18.20;49.60;;;;;;5094775;28;20174;-68
2021/04/24 07:16:45;;;;;;;2.85;2.60;;;18.10;49.40;;;;;;5076413;28;20176;-67
2021/04/24 07:19:10;;;;;;;4.07;2.53;;;18.10;49.30;;;;;;5059369;28;20249;-67
2021/04/24 07:21:36;;;;;;;3.17;2.60;;;18.10;49.20;;;;;;5059431;28;20633;-68
2021/04/24 07:24:02;;;;;;;3.85;2.58;;;18.10;49.30;;;;;;5059599;28;20218;-72
2021/04/24 07:26:27;;;;;;;5.00;2.80;;;18.10;49.30;;;;;;5093887;28;20170;-67
2021/04/24 07:28:53;;;;;;;3.72;2.90;;;18.10;49.30;;;;;;5076560;28;20166;-68
2021/04/24 07:31:20;;;;;;;4.68;2.60;;;18.10;49.50;;;;;;5094602;28;20544;-68
2021/04/24 07:33:46;;;;;;;4.32;2.65;;;18.10;49.30;;;;;;5075266;28;20178;-71
2021/04/24 07:36:11;;;;;;;3.35;2.67;;;18.10;49.20;;;;;;5076465;28;20162;-70
2021/04/24 07:38:37;;;;;;;4.35;2.97;;;18.00;49.20;;;;;;5058755;28;20681;-69
2021/04/24 07:41:03;;;;;;;3.15;2.63;;;18.00;49.20;;;;;;5076529;28;20166;-69
2021/04/24 07:43:28;;;;;;;3.08;2.60;;;18.00;48.80;;;;;;5059277;28;20266;-67
2021/04/24 07:45:54;;;;;;;4.43;2.75;;;17.90;48.40;;;;;;5075468;28;20827;-71
2021/04/24 07:48:19;;;;;;;3.08;2.35;;;18.00;48.50;;;;;;5076273;28;20216;-71
2021/04/24 07:50:45;;;;;;;3.13;2.80;;;17.90;48.20;;;;;;5075740;28;20169;-69
2021/04/24 07:53:11;;;;;;;6.32;3.08;;;17.90;47.90;;;;;;5059023;28;20170;-68
2021/04/24 07:55:37;;;;;;;4.85;3.17;;;18.00;47.60;;;;;;5042450;28;20180;-70
2021/04/24 07:58:02;;;;;;;4.55;2.72;;;17.90;47.10;;;;;;5094142;28;20169;-72
2021/04/24 08:00:28;;;;;;;3.20;2.90;;;17.90;46.60;;;;;;5074835;28;20537;-70
2021/04/24 08:02:53;;;;;;;3.85;3.03;;;18.00;46.10;;;;;;5058807;28;20205;-70
2021/04/24 08:05:19;;;;;;;4.15;2.78;;;18.00;45.90;;;;;;5059088;28;20181;-72
2021/04/24 08:07:45;;;;;;;5.72;3.13;;;18.00;45.60;;;;;;5074667;28;20180;-71
2021/04/24 08:10:11;;;;;;;4.65;2.90;;;18.00;45.40;;;;;;5093582;28;20211;-71
2021/04/24 08:12:37;;;;;;;3.22;2.92;;;18.00;45.00;;;;;;5058930;28;20209;-72
2021/04/24 08:15:04;;;;;;;4.85;2.72;;;18.00;44.70;;;;;;5058359;28;20166;-72
2021/04/24 08:17:30;;;;;;;3.10;2.80;;;18.00;44.50;;;;;;5074837;28;20180;-72
2021/04/24 08:19:55;;;;;;;3.22;2.50;;;18.00;44.90;;;;;;5075444;28;20579;-72
2021/04/24 08:22:21;;;;;;;4.13;2.88;;;18.00;43.90;;;;;;5092994;28;20240;-71
2021/04/24 08:24:46;;;;;;;2.38;2.17;;;18.00;43.70;;;;;;5093399;28;20166;-64
2021/04/24 08:27:12;;;;;;;3.90;2.35;;;18.00;43.50;;;;;;5075317;28;20218;-67
2021/04/24 08:29:37;;;;;;;4.60;2.53;;;18.00;43.30;;;;;;5057414;28;20223;-68
2021/04/24 08:32:04;;;;;;;6.03;2.83;;;18.00;43.30;;;;;;5092981;28;20533;-69
2021/04/24 08:34:30;;;;;;;2.92;2.30;;;18.00;43.60;;;;;;5074885;28;20177;-68
2021/04/24 08:36:56;;;;;;;3.60;2.17;;;18.00;44.10;;;;;;5074536;28;20174;-68
2021/04/24 08:39:21;;;;;;;2.58;2.15;;;18.00;44.40;;;;;;5093183;28;20637;-68
2021/04/24 08:41:47;;;;;;;3.40;2.60;;;18.00;44.60;;;;;;5074937;28;20628;-68
2021/04/24 08:44:17;;;;;;;2.63;2.40;;;18.00;44.40;;;;;;5092508;28;20205;-67
2021/04/24 08:46:49;;;;;;;3.47;2.47;;;18.00;43.70;;;;;;5058433;28;20162;-66
2021/04/24 08:49:19;;;;;;;3.53;2.38;;;18.00;43.20;;;;;;5058613;28;20166;-65
2021/04/24 08:51:45;;;;;;;3.70;2.28;;;18.00;42.80;;;;;;5058599;28;20176;-65
2021/04/24 08:54:11;;;;;;;4.93;2.50;;;18.00;42.20;;;;;;5092716;28;20248;-66
2021/04/24 08:56:36;;;;;;;2.60;2.42;;;18.00;41.70;;;;;;5074047;28;20224;-68
2021/04/24 08:59:02;;;;;;;2.60;2.22;;;18.00;41.50;;;;;;5092683;28;20165;-64
2021/04/24 09:01:27;;;;;;;3.20;2.22;;;18.00;41.10;;;;;;5057973;28;20176;-64
2021/04/24 09:03:53;;;;;;;3.03;2.25;;;18.10;41.60;;;;;;5091990;28;20282;-66
2021/04/24 09:06:23;;;;;;;2.13;1.65;;;18.00;41.90;;;;;;5058014;28;20350;-65
2021/04/24 09:08:53;;;;;;;3.15;1.73;;;18.00;42.20;;;;;;5058797;28;20162;-64
2021/04/24 09:11:19;;;;;;;2.88;1.75;;;18.10;42.60;;;;;;5074011;28;20165;-66
2021/04/24 09:13:44;;;;;;;3.80;1.90;;;18.20;42.90;;;;;;5092353;28;20227;-64
2021/04/24 09:16:22;;;;;;;2.30;1.73;;;18.20;43.00;;;;;;5057760;28;20179;-65
2021/04/24 09:18:48;;;;;;;1.92;1.65;;;18.20;43.20;;;;;;5057291;28;20244;-66
2021/04/24 09:21:14;;;;;;;2.42;1.95;;;18.20;43.40;;;;;;5092599;28;20262;-64
2021/04/24 09:23:39;;;;;;;2.08;1.88;;;18.30;43.60;;;;;;5057452;28;20213;-64
2021/04/24 09:26:10;;;;;;;1.92;1.80;;;18.30;43.80;;;;;;5073978;28;20773;-64
2021/04/24 09:28:37;;;;;;;2.50;1.70;;;18.30;44.00;;;;;;5057678;28;20225;-67
2021/04/24 09:31:10;;;;;;;1.85;1.70;;;18.30;44.10;;;;;;5074879;28;20166;-62
2021/04/24 09:33:36;;;;;;;2.30;1.70;;;18.40;44.30;;;;;;5092222;28;20170;-66
2021/04/24 09:36:02;;;;;;;1.83;1.60;;;18.40;44.40;;;;;;5041084;28;20600;-68
2021/04/24 09:38:30;;;;;;;2.22;1.70;;;18.40;45.10;;;;;;5073603;28;20178;-67
2021/04/24 09:41:07;;;;;;;1.58;1.48;;;18.50;44.60;;;;;;5057454;28;20227;-68
2021/04/24 09:44:03;;;;;;;2.05;1.80;;;18.50;44.80;;;;;;5075362;28;20197;-68
2021/04/24 09:46:31;;;;;;;1.60;1.38;;;18.50;44.90;;;;;;5059316;28;20190;-68
2021/04/24 09:49:28;;;;;;;2.45;1.55;;;18.50;45.00;;;;;;5061578;28;20518;-67
2021/04/24 09:52:05;;;;;;;3.45;1.50;;;18.50;45.10;;;;;;5076345;28;20200;-68
2021/04/24 09:54:34;;;;;;;2.20;1.60;;;18.60;45.30;;;;;;5077425;28;20169;-66
2021/04/24 09:57:05;;;;;;;1.70;1.60;;;18.60;45.40;;;;;;5096138;28;20162;-70
2021/04/24 09:59:31;;;;;;;1.52;1.42;;;18.60;45.40;;;;;;5094868;28;20166;-67
2021/04/24 10:02:01;;;;;;;1.48;1.38;;;18.60;45.50;;;;;;5078170;28;20347;-70
2021/04/24 10:04:27;;;;;;;2.45;1.83;;;18.70;45.60;;;;;;5061219;28;20233;-67
2021/04/24 10:06:54;;;;;;;2.83;1.58;;;18.70;45.60;;;;;;5060445;28;20194;-67
2021/04/24 10:09:23;;;;;;;2.50;1.40;;;18.70;45.70;;;;;;5061493;28;20223;-67
2021/04/24 10:12:09;;;;;;;2.80;1.65;;;18.80;45.80;;;;;;5077524;28;20166;-69
2021/04/24 10:14:45;;;;;;;2.10;1.50;;;18.80;45.80;;;;;;5079224;28;20166;-70
2021/04/24 10:17:12;;;;;;;1.67;1.40;;;18.80;45.90;;;;;;5061177;28;20211;-67
2021/04/24 10:19:38;;;;;;;1.75;1.52;;;18.90;46.70;;;;;;5077435;28;20174;-65
2021/04/24 10:22:07;;;;;;;1.63;1.35;;;18.90;46.00;;;;;;5076982;28;20173;-70
2021/04/24 10:24:33;;;;;;;1.40;1.30;;;18.90;46.10;;;;;;5077100;28;20181;-65
2021/04/24 10:26:59;;;;;;;1.83;1.35;;;18.90;46.20;;;;;;5060466;28;20221;-64
2021/04/24 10:29:24;;;;;;;1.45;1.35;;;18.90;46.30;;;;;;5077047;28;20622;-66
2021/04/24 10:31:50;;;;;;;2.17;1.60;;;18.90;46.40;;;;;;5060763;28;20220;-67
2021/04/24 10:34:16;;;;;;;1.50;1.40;;;18.90;46.50;;;;;;5077416;28;20633;-68
2021/04/24 10:36:41;;;;;;;1.65;1.55;;;18.80;46.90;;;;;;5076665;28;20177;-67
2021/04/24 10:39:28;;;;;;;2.17;1.48;;;18.90;46.30;;;;;;5077463;28;20184;-67
2021/04/24 10:42:00;;;;;;;2.03;1.40;;;18.80;46.20;;;;;;5094715;28;20222;-66
2021/04/24 10:44:45;;;;;;;1.95;1.50;;;18.80;46.10;;;;;;5077386;28;20273;-69
2021/04/24 10:47:11;;;;;;;2.67;1.50;;;18.80;46.20;;;;;;5077124;28;20637;-68
2021/04/24 10:49:51;;;;;;;3.17;1.45;;;18.90;46.30;;;;;;5076227;28;20177;-68
2021/04/24 10:52:23;;;;;;;2.58;1.20;;;18.90;46.30;;;;;;5079800;28;20518;-67
2021/04/24 10:55:14;;;;;;;1.40;1.30;;;19.00;46.40;;;;;;5094253;28;20174;-73
2021/04/24 10:57:48;;;;;;;1.30;1.20;;;19.00;46.40;;;;;;5094127;28;20197;-69
2021/04/24 11:00:16;;;;;;;2.05;1.45;;;19.00;46.40;;;;;;5076919;28;20537;-68
2021/04/24 11:02:45;;;;;;;1.35;1.20;;;19.10;46.50;;;;;;5093843;28;20192;-68
2021/04/24 11:05:19;;;;;;;1.63;1.52;;;19.10;46.50;;;;;;5076613;28;20186;-67
2021/04/24 11:07:45;;;;;;;2.35;1.30;;;19.20;46.50;;;;;;5060126;28;20185;-66
2021/04/24 11:10:10;;;;;;;1.42;1.33;;;19.10;46.50;;;;;;5059403;28;20209;-69
2021/04/24 11:12:45;;;;;;;1.20;1.10;;;19.10;46.60;;;;;;5094699;28;20617;-68
2021/04/24 11:15:15;;;;;;;2.03;1.30;;;19.00;46.70;;;;;;5076516;28;20173;-67
2021/04/24 11:17:40;;;;;;;1.75;1.30;;;19.00;46.90;;;;;;5075511;28;20174;-69
2021/04/24 11:20:10;;;;;;;1.40;1.30;;;19.00;47.00;;;;;;5076731;28;20226;-69
2021/04/24 11:22:41;;;;;;;2.50;1.63;;;18.90;47.10;;;;;;5043996;28;20213;-69
2021/04/24 11:25:20;;;;;;;1.58;1.17;;;18.90;47.20;;;;;;5094093;28;20162;-66
2021/04/24 11:28:07;;;;;;;1.65;1.50;;;18.90;47.00;;;;;;5094104;28;20229;-65
2021/04/24 11:30:58;;;;;;;3.10;1.50;;;18.90;46.80;;;;;;5076237;28;20173;-70
2021/04/24 11:33:40;;;;;;;1.48;1.30;;;18.90;46.70;;;;;;5076475;28;20166;-67
2021/04/24 11:39:04;;;;;;;2.60;1.80;;;18.90;46.70;;;;;;5093451;28;20174;-71
2021/04/24 11:41:35;;;;;;;2.35;1.60;;;18.90;46.90;;;;;;5094086;28;20185;-70
2021/04/24 11:44:23;;;;;;;2.45;1.58;;;18.90;46.90;;;;;;5075873;28;20560;-71
2021/04/24 11:46:52;;;;;;;1.55;1.45;;;18.90;46.80;;;;;;5093531;28;20189;-68
2021/04/24 11:49:28;;;;;;;2.10;1.67;;;18.90;46.70;;;;;;5076778;28;20166;-71
2021/04/24 11:51:55;;;;;;;1.90;1.60;;;18.90;46.60;;;;;;5058899;28;20222;-68
2021/04/24 11:54:38;;;;;;;1.77;1.60;;;18.90;46.60;;;;;;5076691;28;20632;-68
2021/04/24 11:57:05;;;;;;;3.05;1.75;;;18.90;46.50;;;;;;5061996;28;20174;-68
2021/04/24 11:59:36;;;;;;;2.00;1.52;;;18.90;46.50;;;;;;5075215;28;20231;-69
2021/04/24 12:02:18;;;;;;;3.13;1.70;;;18.90;46.40;;;;;;5093848;28;20169;-65
2021/04/24 12:04:45;;;;;;;2.78;1.67;;;18.90;46.40;;;;;;5075744;28;20642;-65
2021/04/24 12:07:12;;;;;;;3.53;1.85;;;18.90;46.40;;;;;;5092034;28;20166;-66
2021/04/24 12:10:05;;;;;;;2.08;1.70;;;19.00;46.40;;;;;;5042121;28;20170;-65
2021/04/24 12:12:33;;;;;;;2.28;1.75;;;19.00;46.50;;;;;;5089299;28;20545;-67
2021/04/24 12:15:27;;;;;;;3.20;1.90;;;18.90;46.60;;;;;;5093023;28;20546;-67
2021/04/24 12:17:57;;;;;;;3.25;1.67;;;18.90;46.60;;;;;;5067925;28;20590;-67
2021/04/24 12:20:24;;;;;;;1.70;1.60;;;18.90;46.50;;;;;;5092989;28;20162;-68
2021/04/24 12:22:49;;;;;;;3.25;1.75;;;18.90;46.50;;;;;;5075176;28;20205;-68
2021/04/24 12:25:19;;;;;;;3.05;1.58;;;18.80;46.30;;;;;;5042123;28;20256;-68
2021/04/24 12:27:46;;;;;;;2.97;1.70;;;18.80;46.30;;;;;;5057749;28;20354;-69
2021/04/24 12:30:13;;;;;;;4.10;1.98;;;18.80;46.30;;;;;;5075404;28;20184;-68
2021/04/24 12:32:44;;;;;;;2.35;1.80;;;18.80;46.20;;;;;;5075038;28;20173;-69
2021/04/24 12:35:21;;;;;;;2.63;2.00;;;18.80;46.10;;;;;;5042010;28;20196;-69
2021/04/24 12:37:49;;;;;;;2.35;1.65;;;18.80;46.00;;;;;;5075222;28;20166;-67
2021/04/24 12:40:20;;;;;;;1.75;1.65;;;18.80;46.00;;;;;;5075203;28;20261;-67
2021/04/24 12:42:46;;;;;;;2.45;1.90;;;18.80;45.90;;;;;;5074276;28;20223;-67
2021/04/24 12:45:14;;;;;;;2.35;1.73;;;18.80;45.90;;;;;;5075025;28;20255;-67
2021/04/24 12:47:40;;;;;;;2.13;1.92;;;18.80;45.90;;;;;;5058583;28;20178;-67
2021/04/24 12:50:08;;;;;;;2.20;1.83;;;18.70;45.90;;;;;;5074520;28;20181;-67
2021/04/24 12:52:53;;;;;;;2.85;1.75;;;18.70;45.80;;;;;;5074953;28;20264;-67